createdAt,value
2023-03-03T00:01:51.590Z,83.80
2023-03-03T00:04:18.565Z,79.97
2023-03-03T00:06:46.382Z,69.28
2023-03-03T00:09:13.356Z,60.50
2023-03-03T00:11:40.710Z,64.60
2023-03-03T00:14:22.082Z,66.95
2023-03-03T00:16:50.009Z,60.30
2023-03-03T00:19:20.306Z,66.03
2023-03-03T00:21:50.111Z,61.03
2023-03-03T00:24:25.222Z,65.95
2023-03-03T00:26:57.763Z,70.65
2023-03-03T00:29:35.882Z,70.27
2023-03-03T00:32:15.535Z,66.00
2023-03-03T00:34:43.708Z,70.82
2023-03-03T00:37:35.392Z,64.25
2023-03-03T00:40:41.186Z,54.05
2023-03-03T00:43:20.478Z,52.67
2023-03-03T00:45:50.907Z,63.55
2023-03-03T00:48:22.920Z,63.53
2023-03-03T00:50:52.371Z,63.53
2023-03-03T00:53:21.526Z,56.22
2023-03-03T00:55:50.359Z,69.60
2023-03-03T00:58:24.273Z,60.35
2023-03-03T01:00:56.789Z,66.50
2023-03-03T01:03:25.634Z,64.65
2023-03-03T01:05:53.780Z,66.25
2023-03-03T01:08:22.251Z,59.38
2023-03-03T01:10:52.047Z,72.18
2023-03-03T01:13:22.221Z,70.53
2023-03-03T01:15:49.370Z,67.90
2023-03-03T01:18:17.429Z,72.45
2023-03-03T01:20:44.392Z,90.22
2023-03-03T01:23:12.167Z,80.40
2023-03-03T01:25:39.745Z,85.40
2023-03-03T01:28:07.268Z,97.47
2023-03-03T01:30:34.793Z,97.63
2023-03-03T01:33:02.221Z,76.03
2023-03-03T01:35:30.158Z,81.18
2023-03-03T01:37:58.480Z,70.65
2023-03-03T01:40:28.543Z,74.40
2023-03-03T01:42:56.122Z,77.13
2023-03-03T01:45:42.438Z,72.13
2023-03-03T01:48:17.921Z,72.70
2023-03-03T01:50:57.535Z,74.60
2023-03-03T01:53:48.090Z,68.47
2023-03-03T01:56:15.048Z,61.13
2023-03-03T01:58:46.890Z,67.53
2023-03-03T02:01:22.042Z,57.97
2023-03-03T02:03:50.642Z,73.47
2023-03-03T02:06:22.508Z,68.50
2023-03-03T02:09:09.759Z,64.63
2023-03-03T02:11:38.817Z,58.50
2023-03-03T02:14:06.344Z,64.43
2023-03-03T02:16:33.951Z,60.45
2023-03-03T02:19:01.698Z,59.58
2023-03-03T02:21:28.669Z,64.47
2023-03-03T02:24:15.518Z,66.28
2023-03-03T02:26:43.039Z,58.20
2023-03-03T02:29:10.804Z,68.72
2023-03-03T02:31:38.623Z,62.97
2023-03-03T02:34:06.578Z,64.85
2023-03-03T02:36:36.372Z,55.92
2023-03-03T02:39:15.501Z,68.93
2023-03-03T02:41:59.080Z,67.45
2023-03-03T02:44:29.095Z,64.40
2023-03-03T02:46:57.387Z,63.40
2023-03-03T02:49:27.634Z,59.30
2023-03-03T02:51:55.728Z,61.20
2023-03-03T02:54:25.786Z,69.35
2023-03-03T02:56:53.112Z,63.08
2023-03-03T02:59:20.337Z,56.38
2023-03-03T03:01:47.936Z,52.92
2023-03-03T03:04:21.803Z,65.60
2023-03-03T03:06:48.943Z,55.20
2023-03-03T03:09:17.079Z,51.65
2023-03-03T03:11:44.634Z,55.05
2023-03-03T03:14:13.718Z,64.53
2023-03-03T03:16:40.965Z,60.67
2023-03-03T03:19:09.223Z,72.95
2023-03-03T03:21:36.394Z,52.83
2023-03-03T03:24:03.856Z,65.90
2023-03-03T03:26:30.854Z,65.25
2023-03-03T03:28:58.321Z,58.47
2023-03-03T03:31:25.724Z,57.38
2023-03-03T03:33:53.230Z,52.13
2023-03-03T03:36:20.512Z,51.13
2023-03-03T03:38:47.778Z,58.47
2023-03-03T03:41:14.851Z,55.30
2023-03-03T03:43:42.174Z,55.97
2023-03-03T03:46:09.279Z,54.42
2023-03-03T03:48:36.982Z,48.10
2023-03-03T03:51:04.386Z,65.60
2023-03-03T03:53:32.194Z,47.17
2023-03-03T03:55:59.172Z,55.63
2023-03-03T03:58:26.473Z,43.38
2023-03-03T04:00:53.489Z,52.92
2023-03-03T04:03:21.319Z,54.70
2023-03-03T04:05:48.469Z,59.75
2023-03-03T04:08:16.034Z,53.10
2023-03-03T04:10:43.185Z,56.00
2023-03-03T04:13:10.820Z,61.75
2023-03-03T04:15:37.938Z,48.08
2023-03-03T04:18:05.621Z,63.55
2023-03-03T04:20:32.673Z,54.70
2023-03-03T04:23:00.228Z,50.80
2023-03-03T04:25:27.441Z,59.10
2023-03-03T04:27:54.705Z,55.45
2023-03-03T04:30:21.683Z,51.30
2023-03-03T04:32:49.669Z,47.63
2023-03-03T04:35:16.810Z,47.15
2023-03-03T04:37:44.053Z,54.22
2023-03-03T04:40:11.473Z,48.80
2023-03-03T04:42:38.775Z,47.03
2023-03-03T04:45:06.327Z,56.83
2023-03-03T04:47:34.128Z,61.72
2023-03-03T04:50:01.116Z,46.58
2023-03-03T04:52:29.167Z,72.88
2023-03-03T04:54:56.217Z,65.20
2023-03-03T04:57:23.765Z,60.20
2023-03-03T04:59:51.543Z,69.18
2023-03-03T05:02:19.635Z,74.97
2023-03-03T05:04:46.619Z,66.25
2023-03-03T05:07:14.166Z,69.68
2023-03-03T05:09:41.210Z,55.10
2023-03-03T05:12:08.469Z,60.13
2023-03-03T05:14:35.446Z,67.75
2023-03-03T05:17:04.501Z,55.97
2023-03-03T05:19:31.691Z,53.92
2023-03-03T05:21:58.999Z,51.50
2023-03-03T05:24:25.936Z,42.92
2023-03-03T05:26:53.396Z,68.65
2023-03-03T05:29:20.478Z,63.03
2023-03-03T05:31:47.839Z,54.75
2023-03-03T05:34:14.954Z,50.88
2023-03-03T05:36:42.481Z,55.90
2023-03-03T05:39:09.433Z,48.13
2023-03-03T05:41:37.042Z,56.80
2023-03-03T05:44:04.222Z,50.33
2023-03-03T05:46:31.661Z,48.55
2023-03-03T05:48:58.941Z,59.58
2023-03-03T05:51:26.266Z,44.08
2023-03-03T05:53:56.020Z,46.40
2023-03-03T05:56:23.794Z,37.05
2023-03-03T05:58:51.182Z,40.58
2023-03-03T06:01:18.697Z,43.55
2023-03-03T06:03:45.698Z,46.20
2023-03-03T06:06:14.208Z,50.33
2023-03-03T06:08:41.180Z,37.65
2023-03-03T06:11:08.972Z,32.83
2023-03-03T06:13:36.115Z,31.70
2023-03-03T06:16:03.878Z,36.33
2023-03-03T06:18:30.900Z,37.15
2023-03-03T06:20:58.129Z,33.88
2023-03-03T06:23:25.146Z,37.53
2023-03-03T06:25:53.350Z,36.10
2023-03-03T06:28:20.511Z,34.58
2023-03-03T06:30:47.908Z,35.28
2023-03-03T06:33:14.879Z,31.13
2023-03-03T06:35:42.278Z,34.10
2023-03-03T06:38:09.260Z,31.35
2023-03-03T06:40:36.807Z,31.45
2023-03-03T06:43:04.398Z,32.13
2023-03-03T06:45:31.760Z,38.92
2023-03-03T06:47:58.859Z,42.17
2023-03-03T06:50:26.162Z,35.20
2023-03-03T06:53:05.178Z,32.30
2023-03-03T06:55:32.686Z,29.88
2023-03-03T06:58:01.804Z,36.20
2023-03-03T07:00:31.151Z,32.03
2023-03-03T07:03:01.886Z,36.47
2023-03-03T07:05:30.310Z,41.10
2023-03-03T07:07:57.442Z,38.45
2023-03-03T07:10:28.183Z,36.25
2023-03-03T07:12:58.470Z,37.58
2023-03-03T07:15:34.358Z,44.80
2023-03-03T07:18:02.616Z,45.13
2023-03-03T07:20:35.318Z,37.72
2023-03-03T07:23:26.204Z,41.22
2023-03-03T07:25:54.117Z,32.83
2023-03-03T07:28:27.417Z,36.78
2023-03-03T07:30:57.261Z,37.92
2023-03-03T07:33:43.644Z,37.47
2023-03-03T07:36:34.788Z,36.05
2023-03-03T07:39:11.553Z,42.10
2023-03-03T07:41:38.988Z,34.95
2023-03-03T07:44:21.683Z,33.53
2023-03-03T07:46:50.521Z,34.28
2023-03-03T07:49:25.002Z,37.72
2023-03-03T07:52:00.243Z,32.65
2023-03-03T07:54:32.010Z,45.97
2023-03-03T07:57:11.981Z,45.47
2023-03-03T07:59:45.955Z,34.75
2023-03-03T08:02:41.331Z,36.70
2023-03-03T08:05:32.958Z,39.65
2023-03-03T08:08:09.030Z,45.55
2023-03-03T08:10:50.016Z,38.05
2023-03-03T08:13:45.022Z,34.38
2023-03-03T08:16:11.952Z,35.00
2023-03-03T08:18:48.765Z,32.00
2023-03-03T08:21:24.682Z,35.10
2023-03-03T08:23:53.713Z,34.38
2023-03-03T08:26:22.825Z,38.72
2023-03-03T08:28:50.430Z,36.35
2023-03-03T08:31:27.998Z,39.47
2023-03-03T08:34:05.344Z,45.53
2023-03-03T08:36:34.568Z,40.92
2023-03-03T08:39:03.777Z,49.00
2023-03-03T08:41:30.745Z,38.80
2023-03-03T08:43:58.340Z,37.88
2023-03-03T08:46:25.350Z,43.72
2023-03-03T08:48:53.447Z,39.38
2023-03-03T08:51:20.448Z,40.33
2023-03-03T08:53:48.092Z,37.28
2023-03-03T08:56:15.242Z,38.10
2023-03-03T08:59:01.224Z,38.50
2023-03-03T09:01:29.214Z,35.22
2023-03-03T09:03:56.642Z,32.42
2023-03-03T09:06:23.672Z,30.98
2023-03-03T09:08:51.242Z,32.83
2023-03-03T09:11:24.788Z,25.02
2023-03-03T09:14:03.898Z,35.97
2023-03-03T09:16:37.310Z,24.80
2023-03-03T09:19:23.530Z,28.73
2023-03-03T09:21:55.177Z,35.80
2023-03-03T09:24:31.158Z,30.13
2023-03-03T09:26:59.710Z,34.00
2023-03-03T09:29:35.678Z,30.38
2023-03-03T09:32:22.440Z,29.23
2023-03-03T09:34:49.801Z,30.15
2023-03-03T09:37:32.486Z,28.42
2023-03-03T09:40:00.193Z,40.03
2023-03-03T09:42:36.123Z,40.58
2023-03-03T09:45:45.409Z,28.48
2023-03-03T09:48:39.738Z,32.30
2023-03-03T09:51:36.612Z,32.15
2023-03-03T09:54:20.102Z,35.50
2023-03-03T09:57:10.649Z,38.15
2023-03-03T10:00:00.646Z,36.97
2023-03-03T10:02:51.791Z,34.13
2023-03-03T10:05:33.663Z,36.25
2023-03-03T10:08:07.633Z,28.30
2023-03-03T10:10:59.416Z,37.53
2023-03-03T10:13:40.524Z,30.77
2023-03-03T10:16:39.675Z,32.50
2023-03-03T10:19:37.861Z,33.22
2023-03-03T10:22:24.524Z,34.03
2023-03-03T10:24:57.567Z,29.65
2023-03-03T10:27:43.295Z,31.77
2023-03-03T10:31:04.037Z,31.30
2023-03-03T10:33:44.075Z,37.53
2023-03-03T10:36:40.215Z,25.35
2023-03-03T10:39:17.557Z,25.48
2023-03-03T10:42:14.271Z,30.77
2023-03-03T10:45:08.325Z,24.65
2023-03-03T10:47:41.566Z,24.23
2023-03-03T10:50:27.499Z,30.00
2023-03-03T10:53:43.170Z,27.92
2023-03-03T10:56:50.391Z,27.92
2023-03-03T10:59:52.476Z,30.25
2023-03-03T11:02:28.680Z,20.35
2023-03-03T11:05:18.611Z,24.60
2023-03-03T11:08:20.577Z,24.75
2023-03-03T11:11:24.804Z,20.95
2023-03-03T11:13:51.738Z,19.13
2023-03-03T11:16:37.590Z,19.02
2023-03-03T11:19:45.982Z,25.80
2023-03-03T11:22:30.213Z,24.17
2023-03-03T11:25:05.871Z,38.45
2023-03-03T11:27:48.182Z,26.52
2023-03-03T11:30:41.460Z,23.80
2023-03-03T11:36:08.829Z,20.38
2023-03-03T11:38:59.768Z,21.10
2023-03-03T11:41:46.495Z,18.77
2023-03-03T11:44:19.395Z,19.95
2023-03-03T11:46:55.871Z,20.90
2023-03-03T11:49:52.521Z,18.23
2023-03-03T11:52:40.732Z,19.17
2023-03-03T11:55:15.424Z,21.30
2023-03-03T11:58:04.073Z,20.70
2023-03-03T12:00:37.394Z,18.65
2023-03-03T12:06:02.410Z,23.17
2023-03-03T12:08:35.404Z,26.70
2023-03-03T12:11:14.720Z,26.52
2023-03-03T12:13:56.279Z,26.98
2023-03-03T12:16:55.069Z,22.88
2023-03-03T12:19:46.191Z,21.55
2023-03-03T12:22:31.666Z,23.15
2023-03-03T12:25:36.297Z,29.13
2023-03-03T12:28:16.501Z,21.88
2023-03-03T12:31:05.491Z,24.50
2023-03-03T12:33:50.588Z,26.27
2023-03-03T12:36:31.282Z,26.48
2023-03-03T12:39:01.866Z,28.52
2023-03-03T12:41:37.843Z,29.52
2023-03-03T12:44:46.199Z,30.25
2023-03-03T12:47:23.357Z,24.95
2023-03-03T12:50:07.957Z,27.65
2023-03-03T12:52:50.320Z,27.85
2023-03-03T12:56:00.228Z,23.08
2023-03-03T12:58:38.925Z,30.10
2023-03-03T13:01:32.578Z,28.30
2023-03-03T13:04:18.134Z,31.70
2023-03-03T13:06:57.622Z,27.00
2023-03-03T13:09:49.249Z,24.55
2023-03-03T13:12:35.123Z,30.38
2023-03-03T13:15:18.217Z,25.13
2023-03-03T13:18:16.873Z,28.05
2023-03-03T13:21:17.133Z,26.70
2023-03-03T13:23:50.370Z,24.40
2023-03-03T13:26:49.942Z,36.78
2023-03-03T13:29:43.504Z,31.33
2023-03-03T13:32:23.775Z,42.80
2023-03-03T13:35:18.122Z,28.35
2023-03-03T13:37:49.526Z,26.13
2023-03-03T13:40:20.220Z,26.75
2023-03-03T13:43:00.689Z,34.90
2023-03-03T13:45:51.426Z,26.02
2023-03-03T13:48:36.313Z,30.88
2023-03-03T13:51:10.976Z,25.05
2023-03-03T13:54:09.202Z,34.08
2023-03-03T13:57:17.724Z,38.40
2023-03-03T14:00:04.555Z,31.08
2023-03-03T14:03:19.222Z,33.38
2023-03-03T14:05:48.564Z,29.95
2023-03-03T14:08:44.111Z,30.63
2023-03-03T14:11:31.560Z,30.95
2023-03-03T14:14:18.129Z,31.50
2023-03-03T14:17:01.394Z,38.30
2023-03-03T14:19:58.394Z,26.98
2023-03-03T14:22:48.263Z,33.38
2023-03-03T14:25:16.137Z,37.55
2023-03-03T14:27:48.957Z,33.42
2023-03-03T14:33:12.669Z,34.88
2023-03-03T14:35:52.124Z,44.72
2023-03-03T14:38:23.176Z,34.38
2023-03-03T14:41:10.070Z,27.63
2023-03-03T14:43:42.835Z,31.17
2023-03-03T14:46:31.396Z,34.33
2023-03-03T14:49:00.866Z,42.92
2023-03-03T14:51:49.896Z,34.40
2023-03-03T14:54:26.466Z,30.48
2023-03-03T14:57:18.823Z,29.83
2023-03-03T15:00:11.015Z,26.92
2023-03-03T15:03:00.027Z,28.30
2023-03-03T15:05:29.250Z,31.60
2023-03-03T15:08:04.178Z,28.75
2023-03-03T15:10:39.503Z,29.27
2023-03-03T15:13:22.322Z,32.00
2023-03-03T15:16:18.860Z,32.92
2023-03-03T15:19:00.465Z,35.10
2023-03-03T15:21:33.130Z,30.63
2023-03-03T15:24:15.170Z,28.27
2023-03-03T15:27:00.731Z,27.85
2023-03-03T15:29:56.913Z,30.70
2023-03-03T15:32:36.015Z,25.63
2023-03-03T15:35:14.481Z,26.48
2023-03-03T15:37:57.051Z,33.05
2023-03-03T15:40:37.712Z,34.63
2023-03-03T15:43:30.604Z,33.10
2023-03-03T15:46:00.906Z,31.52
2023-03-03T15:48:52.829Z,27.30
2023-03-03T15:51:28.177Z,27.35
2023-03-03T15:54:33.957Z,34.47
2023-03-03T15:57:27.990Z,29.27
2023-03-03T16:00:26.914Z,28.33
2023-03-03T16:03:02.492Z,31.58
2023-03-03T16:05:38.945Z,28.17
2023-03-03T16:08:44.697Z,39.00
2023-03-03T16:11:30.417Z,26.67
2023-03-03T16:14:01.765Z,25.00
2023-03-03T16:16:47.690Z,33.30
2023-03-03T16:19:34.528Z,30.33
2023-03-03T16:22:35.652Z,27.58
2023-03-03T16:25:24.246Z,29.98
2023-03-03T16:28:19.526Z,27.90
2023-03-03T16:31:02.878Z,37.42
2023-03-03T16:33:55.539Z,34.63
2023-03-03T16:37:01.689Z,37.85
2023-03-03T16:39:56.843Z,34.15
2023-03-03T16:42:29.660Z,38.28
2023-03-03T16:45:06.516Z,28.42
2023-03-03T16:47:58.738Z,34.53
2023-03-03T16:51:04.500Z,27.00
2023-03-03T16:53:47.093Z,27.48
2023-03-03T16:56:31.018Z,33.75
2023-03-03T16:59:23.397Z,35.65
2023-03-03T17:01:57.296Z,32.35
2023-03-03T17:04:45.692Z,31.35
2023-03-03T17:07:17.418Z,32.25
2023-03-03T17:10:05.675Z,37.78
2023-03-03T17:12:51.092Z,34.10
2023-03-03T17:15:39.914Z,31.92
2023-03-03T17:18:28.504Z,29.23
2023-03-03T17:21:01.538Z,34.90
2023-03-03T17:23:54.867Z,32.78
2023-03-03T17:26:51.518Z,32.90
2023-03-03T17:29:42.026Z,32.72
2023-03-03T17:32:43.253Z,29.85
2023-03-03T17:35:16.455Z,31.42
2023-03-03T17:38:08.436Z,31.73
2023-03-03T17:40:49.095Z,28.48
2023-03-03T17:43:31.016Z,27.13
2023-03-03T17:46:02.757Z,32.75
2023-03-03T17:49:09.305Z,32.88
2023-03-03T17:51:59.708Z,34.35
2023-03-03T17:54:59.107Z,32.90
2023-03-03T17:58:02.841Z,49.72
2023-03-03T18:00:45.547Z,39.53
2023-03-03T18:03:27.808Z,29.63
2023-03-03T18:06:20.030Z,34.15
2023-03-03T18:09:14.611Z,34.78
2023-03-03T18:12:03.658Z,36.25
2023-03-03T18:14:48.722Z,34.15
2023-03-03T18:17:42.300Z,33.88
2023-03-03T18:20:45.549Z,34.00
2023-03-03T18:23:31.137Z,28.85
2023-03-03T18:26:00.829Z,31.33
2023-03-03T18:28:47.558Z,36.40
2023-03-03T18:31:45.845Z,33.35
2023-03-03T18:34:21.978Z,46.30
2023-03-03T18:36:56.331Z,34.22
2023-03-03T18:40:00.963Z,38.50
2023-03-03T18:42:42.382Z,35.70
2023-03-03T18:45:19.373Z,41.30
2023-03-03T18:48:01.652Z,36.80
2023-03-03T18:50:47.368Z,36.55
2023-03-03T18:53:25.033Z,37.92
2023-03-03T18:56:01.160Z,42.15
2023-03-03T18:58:32.779Z,36.58
2023-03-03T19:01:10.696Z,33.72
2023-03-03T19:03:49.333Z,36.22
2023-03-03T19:06:37.012Z,46.70
2023-03-03T19:09:06.177Z,46.45
2023-03-03T19:11:51.531Z,46.08
2023-03-03T19:14:27.632Z,37.65
2023-03-03T19:16:56.532Z,40.92
2023-03-03T19:19:29.112Z,40.00
2023-03-03T19:22:28.516Z,41.08
2023-03-03T19:25:08.163Z,27.98
2023-03-03T19:27:52.973Z,34.20
2023-03-03T19:30:42.175Z,34.05
2023-03-03T19:33:25.671Z,26.25
2023-03-03T19:36:07.262Z,34.47
2023-03-03T19:39:10.145Z,33.28
2023-03-03T19:42:04.645Z,35.90
2023-03-03T19:44:50.490Z,33.08
2023-03-03T19:47:39.879Z,34.25
2023-03-03T19:50:34.767Z,36.75
2023-03-03T19:53:27.006Z,31.30
2023-03-03T19:56:29.182Z,30.03
2023-03-03T19:59:33.546Z,34.75
2023-03-03T20:02:22.377Z,31.58
2023-03-03T20:05:07.240Z,33.05
2023-03-03T20:08:12.145Z,33.40
2023-03-03T20:10:39.040Z,24.52
2023-03-03T20:13:37.490Z,34.88
2023-03-03T20:16:22.876Z,29.85
2023-03-03T20:19:24.725Z,35.55
2023-03-03T20:22:54.044Z,35.67
2023-03-03T20:25:40.226Z,37.33
2023-03-03T20:28:19.111Z,27.02
2023-03-03T20:31:21.323Z,31.52
2023-03-03T20:34:00.587Z,27.67
2023-03-03T20:36:46.645Z,27.48
2023-03-03T20:39:33.225Z,31.73
2023-03-03T20:42:09.231Z,31.20
2023-03-03T20:44:55.107Z,27.52
2023-03-03T20:47:54.401Z,32.17
2023-03-03T20:50:29.001Z,28.40
2023-03-03T20:53:30.856Z,30.48
2023-03-03T20:56:10.042Z,29.50
2023-03-03T20:58:54.877Z,36.55
2023-03-03T21:01:47.140Z,37.00
2023-03-03T21:04:25.743Z,32.03
2023-03-03T21:06:53.554Z,36.45
2023-03-03T21:09:28.428Z,33.00
2023-03-03T21:11:56.672Z,32.45
2023-03-03T21:14:27.283Z,33.83
2023-03-03T21:16:57.113Z,29.25
2023-03-03T21:19:28.681Z,28.50
2023-03-03T21:21:57.116Z,31.40
2023-03-03T21:24:44.175Z,25.23
2023-03-03T21:27:29.138Z,24.63
2023-03-03T21:30:12.961Z,26.80
2023-03-03T21:32:45.357Z,26.13
2023-03-03T21:35:21.757Z,27.13
2023-03-03T21:37:55.291Z,27.45
2023-03-03T21:42:59.772Z,29.08
2023-03-03T21:45:27.524Z,26.17
2023-03-03T21:47:55.165Z,30.60
2023-03-03T21:50:22.722Z,24.65
2023-03-03T21:52:49.770Z,27.95
2023-03-03T21:55:17.420Z,28.25
2023-03-03T21:57:44.543Z,27.67
2023-03-03T22:00:12.344Z,30.92
2023-03-03T22:02:39.286Z,32.40
2023-03-03T22:05:07.783Z,29.50
2023-03-03T22:07:34.836Z,34.03
2023-03-03T22:10:03.090Z,30.80
2023-03-03T22:12:30.641Z,36.08
2023-03-03T22:14:58.181Z,33.22
2023-03-03T22:17:25.613Z,31.27
2023-03-03T22:19:53.017Z,34.75
2023-03-03T22:22:20.027Z,30.42
2023-03-03T22:24:47.345Z,36.63
2023-03-03T22:27:14.507Z,27.42
2023-03-03T22:29:41.775Z,32.63
2023-03-03T22:32:09.213Z,37.78
2023-03-03T22:34:36.732Z,32.50
2023-03-03T22:37:03.700Z,36.53
2023-03-03T22:39:31.477Z,38.75
2023-03-03T22:41:58.954Z,36.67
2023-03-03T22:44:26.175Z,29.05
2023-03-03T22:46:53.199Z,26.42
2023-03-03T22:49:20.774Z,28.75
2023-03-03T22:51:47.714Z,32.00
2023-03-03T22:54:14.992Z,32.35
2023-03-03T22:56:41.932Z,33.45
2023-03-03T22:59:09.244Z,32.45
2023-03-03T23:01:36.249Z,33.28
2023-03-03T23:04:03.593Z,41.55
2023-03-03T23:06:30.685Z,30.58
2023-03-03T23:08:57.924Z,30.30
2023-03-03T23:11:25.334Z,34.50
2023-03-03T23:13:52.599Z,31.20
2023-03-03T23:16:19.718Z,26.92
2023-03-03T23:18:47.063Z,29.50
2023-03-03T23:21:14.002Z,28.60
2023-03-03T23:23:41.273Z,32.53
2023-03-03T23:26:08.291Z,30.98
2023-03-03T23:28:35.582Z,34.40
2023-03-03T23:31:02.616Z,38.90
2023-03-03T23:33:30.044Z,27.35
2023-03-03T23:35:57.195Z,34.75
2023-03-03T23:38:24.438Z,36.67
2023-03-03T23:40:51.362Z,34.97
2023-03-03T23:43:18.721Z,38.15
2023-03-03T23:45:45.796Z,31.42
2023-03-03T23:48:13.773Z,39.33
2023-03-03T23:50:40.870Z,40.10
2023-03-03T23:53:08.622Z,34.08
2023-03-03T23:55:36.387Z,38.00
2023-03-03T23:58:04.592Z,37.47
